sensor_id;sensor_type;location;lat;lon;timestamp;pressure;altitude;pressure_sealevel;temperature;humidity
51449;BME280;37520;46.570;14.268;2022-08-05T00:01:23;95734.50;;;18.94;77.36
51449;BME280;37520;46.570;14.268;2022-08-05T00:11:24;95748.31;;;18.82;78.52
51449;BME280;37520;46.570;14.268;2022-08-05T00:21:27;95737.50;;;18.73;79.51
51449;BME280;37520;46.570;14.268;2022-08-05T00:31:28;95730.41;;;18.63;78.56
51449;BME280;37520;46.570;14.268;2022-08-05T00:41:31;95722.75;;;18.57;79.03
51449;BME280;37520;46.570;14.268;2022-08-05T00:51:33;95730.16;;;18.46;80.28
51449;BME280;37520;46.570;14.268;2022-08-05T01:01:34;95725.44;;;18.37;81.19
51449;BME280;37520;46.570;14.268;2022-08-05T01:11:36;95731.72;;;18.28;81.85
51449;BME280;37520;46.570;14.268;2022-08-05T01:32:05;95729.84;;;18.09;82.60
51449;BME280;37520;46.570;14.268;2022-08-05T01:42:12;95724.63;;;17.99;81.72
51449;BME280;37520;46.570;14.268;2022-08-05T01:52:16;95715.13;;;17.87;83.23
51449;BME280;37520;46.570;14.268;2022-08-05T02:02:20;95714.38;;;17.82;82.60
51449;BME280;37520;46.570;14.268;2022-08-05T02:12:37;95720.41;;;17.73;83.56
51449;BME280;37520;46.570;14.268;2022-08-05T02:22:44;95725.56;;;17.65;84.32
51449;BME280;37520;46.570;14.268;2022-08-05T02:32:51;95723.53;;;17.56;84.24
51449;BME280;37520;46.570;14.268;2022-08-05T02:42:55;95722.28;;;17.49;85.20
51449;BME280;37520;46.570;14.268;2022-08-05T02:52:57;95715.66;;;17.41;85.46
51449;BME280;37520;46.570;14.268;2022-08-05T03:02:59;95707.44;;;17.37;85.58
51449;BME280;37520;46.570;14.268;2022-08-05T03:13:01;95715.78;;;17.31;86.90
51449;BME280;37520;46.570;14.268;2022-08-05T03:23:05;95713.69;;;17.28;86.96
51449;BME280;37520;46.570;14.268;2022-08-05T03:33:06;95708.38;;;17.22;87.36
51449;BME280;37520;46.570;14.268;2022-08-05T03:43:08;95698.56;;;17.18;88.50
51449;BME280;37520;46.570;14.268;2022-08-05T03:53:50;95707.94;;;17.15;88.61
51449;BME280;37520;46.570;14.268;2022-08-05T04:03:53;95706.13;;;17.11;88.56
51449;BME280;37520;46.570;14.268;2022-08-05T04:13:55;95708.25;;;17.08;89.46
51449;BME280;37520;46.570;14.268;2022-08-05T04:23:56;95706.41;;;17.09;90.31
51449;BME280;37520;46.570;14.268;2022-08-05T04:34:01;95714.06;;;17.16;90.62
51449;BME280;37520;46.570;14.268;2022-08-05T04:44:02;95717.53;;;17.16;90.32
51449;BME280;37520;46.570;14.268;2022-08-05T04:54:03;95714.78;;;17.27;91.76
51449;BME280;37520;46.570;14.268;2022-08-05T05:04:05;95715.47;;;17.37;91.65
51449;BME280;37520;46.570;14.268;2022-08-05T05:14:06;95732.16;;;17.72;91.21
51449;BME280;37520;46.570;14.268;2022-08-05T05:24:07;95711.19;;;18.42;87.98
51449;BME280;37520;46.570;14.268;2022-08-05T05:34:09;95719.19;;;19.27;82.41
51449;BME280;37520;46.570;14.268;2022-08-05T05:44:10;95711.09;;;20.25;77.69
51449;BME280;37520;46.570;14.268;2022-08-05T05:54:11;95708.91;;;21.18;74.93
51449;BME280;37520;46.570;14.268;2022-08-05T06:04:13;95712.69;;;22.23;73.43
51449;BME280;37520;46.570;14.268;2022-08-05T06:14:14;95702.22;;;23.01;69.37
51449;BME280;37520;46.570;14.268;2022-08-05T06:24:17;95706.13;;;23.60;65.95
51449;BME280;37520;46.570;14.268;2022-08-05T06:34:19;95707.66;;;24.29;62.24
51449;BME280;37520;46.570;14.268;2022-08-05T06:44:20;95709.59;;;24.84;59.83
51449;BME280;37520;46.570;14.268;2022-08-05T06:54:22;95700.63;;;25.50;57.57
51449;BME280;37520;46.570;14.268;2022-08-05T07:04:25;95695.78;;;25.81;56.26
51449;BME280;37520;46.570;14.268;2022-08-05T07:14:26;95690.25;;;26.14;54.67
51449;BME280;37520;46.570;14.268;2022-08-05T07:24:46;95689.91;;;26.85;53.40
51449;BME280;37520;46.570;14.268;2022-08-05T07:34:47;95681.03;;;27.32;52.03
51449;BME280;37520;46.570;14.268;2022-08-05T07:44:49;95676.72;;;27.79;50.74
51449;BME280;37520;46.570;14.268;2022-08-05T07:54:50;95670.69;;;28.22;49.97
51449;BME280;37520;46.570;14.268;2022-08-05T08:04:52;95679.63;;;28.61;47.32
51449;BME280;37520;46.570;14.268;2022-08-05T08:14:53;95664.66;;;29.14;47.68
51449;BME280;37520;46.570;14.268;2022-08-05T08:24:55;95659.75;;;29.70;46.67
51449;BME280;37520;46.570;14.268;2022-08-05T08:34:57;95653.44;;;30.19;45.41
51449;BME280;37520;46.570;14.268;2022-08-05T08:44:58;95642.69;;;30.61;44.24
51449;BME280;37520;46.570;14.268;2022-08-05T08:55:03;95640.00;;;31.06;43.05
51449;BME280;37520;46.570;14.268;2022-08-05T09:05:04;95623.91;;;31.42;42.63
51449;BME280;37520;46.570;14.268;2022-08-05T09:15:06;95618.31;;;31.72;41.47
51449;BME280;37520;46.570;14.268;2022-08-05T09:25:07;95623.44;;;31.81;41.00
51449;BME280;37520;46.570;14.268;2022-08-05T09:35:14;95607.91;;;31.99;40.28
51449;BME280;37520;46.570;14.268;2022-08-05T09:45:15;95593.53;;;32.17;39.49
51449;BME280;37520;46.570;14.268;2022-08-05T09:55:16;95578.88;;;32.69;38.51
51449;BME280;37520;46.570;14.268;2022-08-05T10:05:22;95584.41;;;33.12;38.17
51449;BME280;37520;46.570;14.268;2022-08-05T10:15:29;95559.34;;;33.46;37.78
51449;BME280;37520;46.570;14.268;2022-08-05T10:25:31;95556.13;;;33.80;36.86
51449;BME280;37520;46.570;14.268;2022-08-05T10:35:32;95546.63;;;34.10;34.89
51449;BME280;37520;46.570;14.268;2022-08-05T10:45:34;95536.38;;;34.25;32.69
51449;BME280;37520;46.570;14.268;2022-08-05T10:56:00;95533.06;;;34.63;33.71
51449;BME280;37520;46.570;14.268;2022-08-05T11:06:10;95531.06;;;35.16;34.29
51449;BME280;37520;46.570;14.268;2022-08-05T11:16:22;95517.56;;;35.32;31.39
51449;BME280;37520;46.570;14.268;2022-08-05T11:26:24;95517.16;;;35.72;31.13
51449;BME280;37520;46.570;14.268;2022-08-05T11:36:46;95497.25;;;35.99;31.74
51449;BME280;37520;46.570;14.268;2022-08-05T11:46:51;95497.72;;;36.52;32.37
51449;BME280;37520;46.570;14.268;2022-08-05T11:56:55;95490.03;;;36.40;33.22
51449;BME280;37520;46.570;14.268;2022-08-05T12:06:59;95474.22;;;36.44;33.37
51449;BME280;37520;46.570;14.268;2022-08-05T12:17:05;95472.78;;;36.59;32.25
51449;BME280;37520;46.570;14.268;2022-08-05T12:27:07;95451.19;;;36.30;33.64
51449;BME280;37520;46.570;14.268;2022-08-05T12:37:09;95440.56;;;36.60;31.98
51449;BME280;37520;46.570;14.268;2022-08-05T12:47:12;95428.47;;;36.77;32.44
51449;BME280;37520;46.570;14.268;2022-08-05T12:57:14;95417.56;;;36.70;30.77
51449;BME280;37520;46.570;14.268;2022-08-05T13:07:23;95407.03;;;36.65;27.79
51449;BME280;37520;46.570;14.268;2022-08-05T13:17:29;95371.91;;;36.73;27.36
51449;BME280;37520;46.570;14.268;2022-08-05T13:37:34;95343.69;;;36.89;29.15
51449;BME280;37520;46.570;14.268;2022-08-05T13:47:36;95337.09;;;36.62;27.49
51449;BME280;37520;46.570;14.268;2022-08-05T13:57:40;95337.56;;;36.57;28.72
51449;BME280;37520;46.570;14.268;2022-08-05T14:07:43;95334.09;;;36.53;28.28
51449;BME280;37520;46.570;14.268;2022-08-05T14:17:45;95325.44;;;36.55;28.95
51449;BME280;37520;46.570;14.268;2022-08-05T14:27:47;95299.34;;;36.39;27.77
51449;BME280;37520;46.570;14.268;2022-08-05T14:37:49;95308.44;;;36.36;28.01
51449;BME280;37520;46.570;14.268;2022-08-05T14:47:50;95322.91;;;36.17;29.75
51449;BME280;37520;46.570;14.268;2022-08-05T14:57:52;95355.78;;;35.69;29.88
51449;BME280;37520;46.570;14.268;2022-08-05T15:07:54;95434.81;;;33.69;29.26
51449;BME280;37520;46.570;14.268;2022-08-05T15:17:57;95438.41;;;31.85;33.04
51449;BME280;37520;46.570;14.268;2022-08-05T15:27:59;95491.56;;;30.73;35.14
51449;BME280;37520;46.570;14.268;2022-08-05T15:38:01;95533.31;;;30.01;38.12
51449;BME280;37520;46.570;14.268;2022-08-05T15:48:02;95573.97;;;29.30;43.33
51449;BME280;37520;46.570;14.268;2022-08-05T15:58:06;95622.50;;;28.03;47.77
51449;BME280;37520;46.570;14.268;2022-08-05T16:08:07;95645.53;;;26.20;58.22
51449;BME280;37520;46.570;14.268;2022-08-05T16:18:09;95679.09;;;24.62;68.03
51449;BME280;37520;46.570;14.268;2022-08-05T16:28:12;95708.19;;;24.23;75.75
51449;BME280;37520;46.570;14.268;2022-08-05T16:38:14;95724.63;;;23.79;80.49
51449;BME280;37520;46.570;14.268;2022-08-05T16:48:15;95715.16;;;23.73;80.41
51449;BME280;37520;46.570;14.268;2022-08-05T16:58:17;95721.22;;;23.61;82.92
51449;BME280;37520;46.570;14.268;2022-08-05T17:08:18;95701.56;;;23.60;84.65
51449;BME280;37520;46.570;14.268;2022-08-05T17:18:19;95675.41;;;23.52;85.03
51449;BME280;37520;46.570;14.268;2022-08-05T17:28:20;95678.66;;;23.37;87.89
51449;BME280;37520;46.570;14.268;2022-08-05T17:38:22;95673.31;;;23.10;85.01
51449;BME280;37520;46.570;14.268;2022-08-05T17:48:23;95669.91;;;22.83;87.62
51449;BME280;37520;46.570;14.268;2022-08-05T17:58:27;95689.94;;;22.56;87.14
51449;BME280;37520;46.570;14.268;2022-08-05T18:08:32;95706.03;;;22.30;87.89
51449;BME280;37520;46.570;14.268;2022-08-05T18:18:37;95705.09;;;22.08;91.20
51449;BME280;37520;46.570;14.268;2022-08-05T18:28:39;95732.59;;;21.87;90.47
51449;BME280;37520;46.570;14.268;2022-08-05T18:38:41;95752.34;;;21.74;94.31
51449;BME280;37520;46.570;14.268;2022-08-05T18:48:42;95776.53;;;21.74;93.80
51449;BME280;37520;46.570;14.268;2022-08-05T18:58:44;95798.34;;;21.64;95.85
51449;BME280;37520;46.570;14.268;2022-08-05T19:08:45;95795.81;;;21.58;97.65
51449;BME280;37520;46.570;14.268;2022-08-05T19:18:46;95805.53;;;21.54;99.96
51449;BME280;37520;46.570;14.268;2022-08-05T19:28:48;95802.22;;;21.49;97.90
51449;BME280;37520;46.570;14.268;2022-08-05T19:38:49;95799.78;;;21.38;96.57
51449;BME280;37520;46.570;14.268;2022-08-05T19:48:51;95815.38;;;21.28;98.31
51449;BME280;37520;46.570;14.268;2022-08-05T19:58:52;95815.78;;;21.21;97.34
51449;BME280;37520;46.570;14.268;2022-08-05T20:08:53;95812.22;;;21.03;97.79
51449;BME280;37520;46.570;14.268;2022-08-05T20:18:54;95810.94;;;21.00;97.55
51449;BME280;37520;46.570;14.268;2022-08-05T20:28:57;95811.47;;;20.88;97.36
51449;BME280;37520;46.570;14.268;2022-08-05T20:38:58;95811.09;;;20.81;99.68
51449;BME280;37520;46.570;14.268;2022-08-05T20:49:00;95821.66;;;20.77;100.00
51449;BME280;37520;46.570;14.268;2022-08-05T20:59:01;95822.63;;;20.68;98.12
51449;BME280;37520;46.570;14.268;2022-08-05T21:09:05;95818.94;;;20.41;99.63
51449;BME280;37520;46.570;14.268;2022-08-05T21:19:07;95812.78;;;20.26;99.17
51449;BME280;37520;46.570;14.268;2022-08-05T21:29:08;95822.25;;;20.10;98.32
51449;BME280;37520;46.570;14.268;2022-08-05T21:39:11;95809.13;;;19.94;98.27
51449;BME280;37520;46.570;14.268;2022-08-05T21:49:12;95818.66;;;19.87;99.66
51449;BME280;37520;46.570;14.268;2022-08-05T21:59:14;95819.47;;;19.87;100.00
51449;BME280;37520;46.570;14.268;2022-08-05T22:09:15;95825.03;;;19.91;100.00
51449;BME280;37520;46.570;14.268;2022-08-05T22:19:17;95825.69;;;19.83;100.00
51449;BME280;37520;46.570;14.268;2022-08-05T22:29:19;95818.53;;;19.78;100.00
51449;BME280;37520;46.570;14.268;2022-08-05T22:39:20;95841.97;;;19.72;100.00
51449;BME280;37520;46.570;14.268;2022-08-05T22:49:22;95830.16;;;19.59;100.00
51449;BME280;37520;46.570;14.268;2022-08-05T22:59:23;95850.66;;;19.50;100.00
51449;BME280;37520;46.570;14.268;2022-08-05T23:09:24;95834.75;;;19.40;100.00
51449;BME280;37520;46.570;14.268;2022-08-05T23:19:26;95838.09;;;19.31;100.00
51449;BME280;37520;46.570;14.268;2022-08-05T23:29:27;95829.47;;;19.21;100.00
51449;BME280;37520;46.570;14.268;2022-08-05T23:39:31;95829.03;;;19.13;100.00
51449;BME280;37520;46.570;14.268;2022-08-05T23:49:32;95823.25;;;19.06;100.00
51449;BME280;37520;46.570;14.268;2022-08-05T23:59:36;95820.44;;;18.97;100.00
